sensor_id;sensor_type;location;lat;lon;timestamp;pressure;altitude;pressure_sealevel;temperature;humidity
22605;BME280;11469;49.024;8.246;2023-04-28T00:01:52;100141.81;;;12.10;95.44
22605;BME280;11469;49.024;8.246;2023-04-28T00:04:17;100157.84;;;12.10;96.19
22605;BME280;11469;49.024;8.246;2023-04-28T00:06:43;100147.81;;;12.09;95.80
22605;BME280;11469;49.024;8.246;2023-04-28T00:09:08;100144.19;;;12.08;95.75
22605;BME280;11469;49.024;8.246;2023-04-28T00:11:36;100139.31;;;12.05;94.93
22605;BME280;11469;49.024;8.246;2023-04-28T00:14:02;100136.63;;;12.12;93.52
22605;BME280;11469;49.024;8.246;2023-04-28T00:16:27;100128.16;;;12.39;91.39
22605;BME280;11469;49.024;8.246;2023-04-28T00:18:52;100126.63;;;12.45;91.09
22605;BME280;11469;49.024;8.246;2023-04-28T00:21:18;100133.06;;;12.45;89.99
22605;BME280;11469;49.024;8.246;2023-04-28T00:23:43;100124.50;;;12.35;90.58
22605;BME280;11469;49.024;8.246;2023-04-28T00:26:08;100132.53;;;12.36;90.12
22605;BME280;11469;49.024;8.246;2023-04-28T00:28:34;100133.31;;;12.33;90.73
22605;BME280;11469;49.024;8.246;2023-04-28T00:31:00;100122.53;;;12.39;90.92
22605;BME280;11469;49.024;8.246;2023-04-28T00:33:25;100118.88;;;12.35;90.71
22605;BME280;11469;49.024;8.246;2023-04-28T00:35:58;100114.69;;;12.51;88.95
22605;BME280;11469;49.024;8.246;2023-04-28T00:38:23;100119.78;;;12.42;89.38
22605;BME280;11469;49.024;8.246;2023-04-28T00:40:49;100120.16;;;12.41;89.75
22605;BME280;11469;49.024;8.246;2023-04-28T00:43:15;100126.16;;;12.39;89.15
22605;BME280;11469;49.024;8.246;2023-04-28T00:45:40;100109.81;;;12.48;88.03
22605;BME280;11469;49.024;8.246;2023-04-28T00:48:06;100114.63;;;12.48;87.76
22605;BME280;11469;49.024;8.246;2023-04-28T00:50:32;100109.88;;;12.52;88.05
22605;BME280;11469;49.024;8.246;2023-04-28T00:52:59;100114.25;;;12.49;88.54
22605;BME280;11469;49.024;8.246;2023-04-28T00:55:25;100106.59;;;12.46;89.36
22605;BME280;11469;49.024;8.246;2023-04-28T00:57:50;100105.41;;;12.47;89.18
22605;BME280;11469;49.024;8.246;2023-04-28T01:00:16;100109.25;;;12.36;90.06
22605;BME280;11469;49.024;8.246;2023-04-28T01:02:41;100106.50;;;12.39;90.86
22605;BME280;11469;49.024;8.246;2023-04-28T01:05:08;100108.81;;;12.34;91.30
22605;BME280;11469;49.024;8.246;2023-04-28T01:07:33;100091.97;;;12.34;92.47
22605;BME280;11469;49.024;8.246;2023-04-28T01:09:59;100092.53;;;12.46;92.80
22605;BME280;11469;49.024;8.246;2023-04-28T01:12:24;100087.78;;;12.50;89.74
22605;BME280;11469;49.024;8.246;2023-04-28T01:14:50;100096.31;;;12.27;91.77
22605;BME280;11469;49.024;8.246;2023-04-28T01:17:16;100100.22;;;12.19;92.87
22605;BME280;11469;49.024;8.246;2023-04-28T01:19:41;100098.59;;;12.18;93.34
22605;BME280;11469;49.024;8.246;2023-04-28T01:22:07;100094.97;;;12.18;93.06
22605;BME280;11469;49.024;8.246;2023-04-28T01:24:34;100100.16;;;12.16;93.02
22605;BME280;11469;49.024;8.246;2023-04-28T01:27:00;100100.53;;;12.14;93.15
22605;BME280;11469;49.024;8.246;2023-04-28T01:29:27;100077.25;;;12.14;92.66
22605;BME280;11469;49.024;8.246;2023-04-28T01:31:52;100069.56;;;12.41;89.95
22605;BME280;11469;49.024;8.246;2023-04-28T01:34:17;100082.56;;;12.19;90.25
22605;BME280;11469;49.024;8.246;2023-04-28T01:36:43;100085.22;;;12.08;91.46
22605;BME280;11469;49.024;8.246;2023-04-28T01:39:08;100099.25;;;12.08;91.82
22605;BME280;11469;49.024;8.246;2023-04-28T01:41:34;100094.88;;;12.11;91.87
22605;BME280;11469;49.024;8.246;2023-04-28T01:43:59;100092.81;;;12.08;92.83
22605;BME280;11469;49.024;8.246;2023-04-28T01:46:25;100091.91;;;12.00;93.33
22605;BME280;11469;49.024;8.246;2023-04-28T01:48:50;100097.47;;;11.96;94.02
22605;BME280;11469;49.024;8.246;2023-04-28T01:51:16;100084.13;;;12.16;93.22
22605;BME280;11469;49.024;8.246;2023-04-28T01:53:41;100075.69;;;12.16;92.93
22605;BME280;11469;49.024;8.246;2023-04-28T01:56:07;100076.25;;;12.29;92.91
22605;BME280;11469;49.024;8.246;2023-04-28T01:58:32;100078.94;;;12.18;93.02
22605;BME280;11469;49.024;8.246;2023-04-28T02:00:57;100082.22;;;11.98;93.94
22605;BME280;11469;49.024;8.246;2023-04-28T02:03:23;100089.00;;;11.93;94.71
22605;BME280;11469;49.024;8.246;2023-04-28T02:05:48;100104.97;;;11.89;95.84
22605;BME280;11469;49.024;8.246;2023-04-28T02:08:14;100123.31;;;11.83;97.59
22605;BME280;11469;49.024;8.246;2023-04-28T02:10:40;100126.13;;;11.83;97.84
22605;BME280;11469;49.024;8.246;2023-04-28T02:13:05;100115.59;;;11.76;97.91
22605;BME280;11469;49.024;8.246;2023-04-28T02:15:31;100112.34;;;11.74;97.34
22605;BME280;11469;49.024;8.246;2023-04-28T02:17:56;100110.28;;;11.71;97.12
22605;BME280;11469;49.024;8.246;2023-04-28T02:20:22;100119.41;;;11.64;97.81
22605;BME280;11469;49.024;8.246;2023-04-28T02:22:47;100104.63;;;11.68;97.07
22605;BME280;11469;49.024;8.246;2023-04-28T02:25:12;100102.69;;;11.72;96.98
22605;BME280;11469;49.024;8.246;2023-04-28T02:27:38;100102.91;;;11.86;96.82
22605;BME280;11469;49.024;8.246;2023-04-28T02:30:04;100100.84;;;11.83;97.38
22605;BME280;11469;49.024;8.246;2023-04-28T02:32:30;100095.88;;;11.73;98.14
22605;BME280;11469;49.024;8.246;2023-04-28T02:34:56;100090.16;;;11.66;99.32
22605;BME280;11469;49.024;8.246;2023-04-28T02:37:21;100087.84;;;11.71;99.45
22605;BME280;11469;49.024;8.246;2023-04-28T02:39:47;100087.28;;;11.62;99.50
22605;BME280;11469;49.024;8.246;2023-04-28T02:42:12;100103.31;;;11.61;100.00
22605;BME280;11469;49.024;8.246;2023-04-28T02:44:38;100099.00;;;11.68;100.00
22605;BME280;11469;49.024;8.246;2023-04-28T02:47:04;100101.31;;;11.62;100.00
22605;BME280;11469;49.024;8.246;2023-04-28T02:49:29;100100.06;;;11.59;100.00
22605;BME280;11469;49.024;8.246;2023-04-28T02:51:54;100112.84;;;11.57;100.00
22605;BME280;11469;49.024;8.246;2023-04-28T02:54:20;100099.63;;;11.57;100.00
22605;BME280;11469;49.024;8.246;2023-04-28T02:56:52;100104.50;;;11.60;100.00
22605;BME280;11469;49.024;8.246;2023-04-28T02:59:18;100111.00;;;11.64;100.00
22605;BME280;11469;49.024;8.246;2023-04-28T03:01:44;100095.75;;;11.66;100.00
22605;BME280;11469;49.024;8.246;2023-04-28T03:04:10;100084.53;;;11.66;100.00
22605;BME280;11469;49.024;8.246;2023-04-28T03:06:35;100094.53;;;11.63;100.00
22605;BME280;11469;49.024;8.246;2023-04-28T03:09:00;100098.13;;;11.63;100.00
22605;BME280;11469;49.024;8.246;2023-04-28T03:11:26;100098.94;;;11.64;100.00
22605;BME280;11469;49.024;8.246;2023-04-28T03:13:51;100091.72;;;11.63;100.00
22605;BME280;11469;49.024;8.246;2023-04-28T03:16:17;100091.66;;;11.59;100.00
22605;BME280;11469;49.024;8.246;2023-04-28T03:18:42;100079.63;;;11.59;100.00
22605;BME280;11469;49.024;8.246;2023-04-28T03:21:07;100080.44;;;11.59;100.00
22605;BME280;11469;49.024;8.246;2023-04-28T03:23:33;100076.81;;;11.59;100.00
22605;BME280;11469;49.024;8.246;2023-04-28T03:25:58;100074.00;;;11.59;100.00
22605;BME280;11469;49.024;8.246;2023-04-28T03:28:23;100082.34;;;11.55;100.00
22605;BME280;11469;49.024;8.246;2023-04-28T03:30:49;100069.13;;;11.56;100.00
22605;BME280;11469;49.024;8.246;2023-04-28T03:33:15;100065.97;;;11.57;100.00
22605;BME280;11469;49.024;8.246;2023-04-28T03:35:41;100064.34;;;11.56;100.00
22605;BME280;11469;49.024;8.246;2023-04-28T03:38:06;100053.13;;;11.56;100.00
22605;BME280;11469;49.024;8.246;2023-04-28T03:40:31;100052.69;;;11.54;100.00
22605;BME280;11469;49.024;8.246;2023-04-28T03:42:57;100049.88;;;11.54;100.00
22605;BME280;11469;49.024;8.246;2023-04-28T03:45:23;100053.50;;;11.55;100.00
22605;BME280;11469;49.024;8.246;2023-04-28T03:47:48;100053.88;;;11.53;100.00
22605;BME280;11469;49.024;8.246;2023-04-28T03:50:14;100049.50;;;11.56;100.00
22605;BME280;11469;49.024;8.246;2023-04-28T03:52:39;100048.31;;;11.57;100.00
22605;BME280;11469;49.024;8.246;2023-04-28T03:55:05;100050.78;;;11.62;100.00
22605;BME280;11469;49.024;8.246;2023-04-28T03:57:31;100052.41;;;11.63;100.00
22605;BME280;11469;49.024;8.246;2023-04-28T03:59:56;100052.03;;;11.64;100.00
22605;BME280;11469;49.024;8.246;2023-04-28T04:02:21;100046.06;;;11.66;100.00
22605;BME280;11469;49.024;8.246;2023-04-28T04:04:47;100054.03;;;11.64;100.00
22605;BME280;11469;49.024;8.246;2023-04-28T04:07:12;100052.47;;;11.67;100.00
22605;BME280;11469;49.024;8.246;2023-04-28T04:09:38;100046.00;;;11.62;100.00
22605;BME280;11469;49.024;8.246;2023-04-28T04:12:03;100045.66;;;11.68;100.00
22605;BME280;11469;49.024;8.246;2023-04-28T04:14:29;100042.06;;;11.67;100.00
22605;BME280;11469;49.024;8.246;2023-04-28T04:16:54;100045.25;;;11.66;100.00
22605;BME280;11469;49.024;8.246;2023-04-28T04:19:20;100042.44;;;11.66;100.00
22605;BME280;11469;49.024;8.246;2023-04-28T04:21:48;100033.19;;;11.65;100.00
22605;BME280;11469;49.024;8.246;2023-04-28T04:24:13;100015.56;;;11.64;100.00
22605;BME280;11469;49.024;8.246;2023-04-28T04:26:38;100020.78;;;11.66;100.00
22605;BME280;11469;49.024;8.246;2023-04-28T04:29:04;100023.22;;;11.68;100.00
22605;BME280;11469;49.024;8.246;2023-04-28T04:31:29;100023.09;;;11.60;100.00
22605;BME280;11469;49.024;8.246;2023-04-28T04:33:54;100012.69;;;11.61;100.00
22605;BME280;11469;49.024;8.246;2023-04-28T04:36:20;100004.25;;;11.61;100.00
22605;BME280;11469;49.024;8.246;2023-04-28T04:38:46;100017.13;;;11.62;100.00
22605;BME280;11469;49.024;8.246;2023-04-28T04:41:11;100013.94;;;11.63;100.00
22605;BME280;11469;49.024;8.246;2023-04-28T04:43:36;100014.38;;;11.66;100.00
22605;BME280;11469;49.024;8.246;2023-04-28T04:46:02;100024.41;;;11.67;100.00
22605;BME280;11469;49.024;8.246;2023-04-28T04:48:28;100022.03;;;11.69;100.00
22605;BME280;11469;49.024;8.246;2023-04-28T04:50:53;100022.03;;;11.69;100.00
22605;BME280;11469;49.024;8.246;2023-04-28T04:53:19;100026.47;;;11.70;100.00
22605;BME280;11469;49.024;8.246;2023-04-28T04:55:44;100032.06;;;11.70;100.00
22605;BME280;11469;49.024;8.246;2023-04-28T04:58:09;100030.88;;;11.71;100.00
22605;BME280;11469;49.024;8.246;2023-04-28T05:00:35;100042.50;;;11.69;100.00
22605;BME280;11469;49.024;8.246;2023-04-28T05:03:02;100042.06;;;11.67;100.00
22605;BME280;11469;49.024;8.246;2023-04-28T05:05:28;100044.47;;;11.69;100.00
22605;BME280;11469;49.024;8.246;2023-04-28T05:07:53;100038.06;;;11.68;100.00
22605;BME280;11469;49.024;8.246;2023-04-28T05:10:19;100049.72;;;11.70;100.00
22605;BME280;11469;49.024;8.246;2023-04-28T05:12:44;100037.31;;;11.71;100.00
22605;BME280;11469;49.024;8.246;2023-04-28T05:15:10;100039.72;;;11.73;100.00
22605;BME280;11469;49.024;8.246;2023-04-28T05:17:35;100039.72;;;11.73;100.00
22605;BME280;11469;49.024;8.246;2023-04-28T05:20:02;100026.50;;;11.73;100.00
22605;BME280;11469;49.024;8.246;2023-04-28T05:22:28;100030.25;;;11.81;100.00
22605;BME280;11469;49.024;8.246;2023-04-28T05:24:55;100017.88;;;11.85;100.00
22605;BME280;11469;49.024;8.246;2023-04-28T05:27:20;100020.78;;;11.92;100.00
22605;BME280;11469;49.024;8.246;2023-04-28T05:29:46;100024.06;;;11.98;100.00
22605;BME280;11469;49.024;8.246;2023-04-28T05:32:11;100020.50;;;12.01;100.00
22605;BME280;11469;49.024;8.246;2023-04-28T05:34:37;100007.38;;;12.09;100.00
22605;BME280;11469;49.024;8.246;2023-04-28T05:37:02;100017.84;;;12.12;100.00
22605;BME280;11469;49.024;8.246;2023-04-28T05:39:27;100003.47;;;12.17;100.00
22605;BME280;11469;49.024;8.246;2023-04-28T05:41:53;100006.75;;;12.22;100.00
22605;BME280;11469;49.024;8.246;2023-04-28T05:44:18;100010.03;;;12.28;100.00
22605;BME280;11469;49.024;8.246;2023-04-28T05:46:43;100016.91;;;12.34;100.00
22605;BME280;11469;49.024;8.246;2023-04-28T05:49:09;100012.50;;;12.37;100.00
22605;BME280;11469;49.024;8.246;2023-04-28T05:51:35;100007.41;;;12.46;100.00
22605;BME280;11469;49.024;8.246;2023-04-28T05:54:01;100003.88;;;12.52;100.00
22605;BME280;11469;49.024;8.246;2023-04-28T05:56:26;99999.47;;;12.55;100.00
22605;BME280;11469;49.024;8.246;2023-04-28T05:58:52;100006.34;;;12.57;100.00
22605;BME280;11469;49.024;8.246;2023-04-28T06:01:17;99997.16;;;12.60;100.00
22605;BME280;11469;49.024;8.246;2023-04-28T06:03:43;100004.88;;;12.71;100.00
22605;BME280;11469;49.024;8.246;2023-04-28T06:06:09;99996.84;;;12.69;100.00
22605;BME280;11469;49.024;8.246;2023-04-28T06:08:35;99999.31;;;12.74;100.00
22605;BME280;11469;49.024;8.246;2023-04-28T06:11:00;100002.50;;;12.73;100.00
22605;BME280;11469;49.024;8.246;2023-04-28T06:13:26;99999.69;;;12.73;100.00
22605;BME280;11469;49.024;8.246;2023-04-28T06:15:51;99997.34;;;12.82;100.00
22605;BME280;11469;49.024;8.246;2023-04-28T06:18:17;99991.38;;;12.87;100.00
22605;BME280;11469;49.024;8.246;2023-04-28T06:20:42;99999.38;;;12.85;100.00
22605;BME280;11469;49.024;8.246;2023-04-28T06:23:08;99994.94;;;12.84;100.00
22605;BME280;11469;49.024;8.246;2023-04-28T06:25:34;99995.75;;;12.84;100.00
22605;BME280;11469;49.024;8.246;2023-04-28T06:28:00;99997.75;;;12.84;100.00
22605;BME280;11469;49.024;8.246;2023-04-28T06:30:26;100000.19;;;12.85;100.00
22605;BME280;11469;49.024;8.246;2023-04-28T06:32:51;99998.22;;;12.89;100.00
22605;BME280;11469;49.024;8.246;2023-04-28T06:35:17;99998.22;;;12.89;100.00
22605;BME280;11469;49.024;8.246;2023-04-28T06:37:42;99996.59;;;12.88;100.00
22605;BME280;11469;49.024;8.246;2023-04-28T06:40:09;99996.59;;;12.88;100.00
22605;BME280;11469;49.024;8.246;2023-04-28T06:42:34;99999.81;;;12.87;100.00
22605;BME280;11469;49.024;8.246;2023-04-28T06:44:59;100002.22;;;12.88;100.00
22605;BME280;11469;49.024;8.246;2023-04-28T06:47:25;100001.88;;;12.93;100.00
22605;BME280;11469;49.024;8.246;2023-04-28T06:49:50;99999.84;;;12.90;100.00
22605;BME280;11469;49.024;8.246;2023-04-28T06:52:16;100002.69;;;12.94;100.00
22605;BME280;11469;49.024;8.246;2023-04-28T06:54:42;99999.06;;;12.93;100.00
22605;BME280;11469;49.024;8.246;2023-04-28T06:57:07;99997.88;;;12.94;100.00
22605;BME280;11469;49.024;8.246;2023-04-28T06:59:33;100002.69;;;12.94;100.00
22605;BME280;11469;49.024;8.246;2023-04-28T07:01:59;100005.53;;;12.98;100.00
22605;BME280;11469;49.024;8.246;2023-04-28T07:04:25;100004.72;;;12.97;100.00
22605;BME280;11469;49.024;8.246;2023-04-28T07:06:51;100003.16;;;13.00;100.00
22605;BME280;11469;49.024;8.246;2023-04-28T07:09:16;99997.13;;;13.01;100.00
22605;BME280;11469;49.024;8.246;2023-04-28T07:11:43;100011.59;;;13.00;100.00
22605;BME280;11469;49.024;8.246;2023-04-28T07:14:08;100028.47;;;13.00;100.00
22605;BME280;11469;49.024;8.246;2023-04-28T07:16:34;100024.47;;;13.01;100.00
22605;BME280;11469;49.024;8.246;2023-04-28T07:19:00;100033.69;;;13.01;100.00
22605;BME280;11469;49.024;8.246;2023-04-28T07:21:25;100036.97;;;13.07;100.00
22605;BME280;11469;49.024;8.246;2023-04-28T07:23:52;100039.75;;;13.03;100.00
22605;BME280;11469;49.024;8.246;2023-04-28T07:26:24;100034.94;;;13.04;100.00
22605;BME280;11469;49.024;8.246;2023-04-28T07:28:50;100045.03;;;13.08;100.00
22605;BME280;11469;49.024;8.246;2023-04-28T07:31:16;100040.22;;;13.09;100.00
22605;BME280;11469;49.024;8.246;2023-04-28T07:33:42;100039.44;;;13.12;100.00
22605;BME280;11469;49.024;8.246;2023-04-28T07:36:07;100043.88;;;13.13;100.00
22605;BME280;11469;49.024;8.246;2023-04-28T07:38:34;100043.88;;;13.13;100.00
22605;BME280;11469;49.024;8.246;2023-04-28T07:41:01;100038.66;;;13.15;100.00
22605;BME280;11469;49.024;8.246;2023-04-28T07:43:27;100044.28;;;13.15;100.00
22605;BME280;11469;49.024;8.246;2023-04-28T07:45:53;100039.53;;;13.19;100.00
22605;BME280;11469;49.024;8.246;2023-04-28T07:48:19;100040.34;;;13.19;100.00
22605;BME280;11469;49.024;8.246;2023-04-28T07:50:44;100041.97;;;13.24;100.00
22605;BME280;11469;49.024;8.246;2023-04-28T07:53:10;100044.44;;;13.29;100.00
22605;BME280;11469;49.024;8.246;2023-04-28T07:55:36;100053.72;;;13.33;100.00
22605;BME280;11469;49.024;8.246;2023-04-28T07:58:02;100054.09;;;13.32;100.00
22605;BME280;11469;49.024;8.246;2023-04-28T08:00:27;100046.09;;;13.37;100.00
22605;BME280;11469;49.024;8.246;2023-04-28T08:02:53;100042.13;;;13.42;100.00
22605;BME280;11469;49.024;8.246;2023-04-28T08:05:19;100051.41;;;13.46;100.00
22605;BME280;11469;49.024;8.246;2023-04-28T08:07:45;100055.09;;;13.53;100.00
22605;BME280;11469;49.024;8.246;2023-04-28T08:10:11;100055.88;;;13.50;100.00
22605;BME280;11469;49.024;8.246;2023-04-28T08:12:37;100049.91;;;13.59;100.00
22605;BME280;11469;49.024;8.246;2023-04-28T08:15:05;100051.56;;;13.64;100.00
22605;BME280;11469;49.024;8.246;2023-04-28T08:17:31;100051.59;;;13.67;100.00
22605;BME280;11469;49.024;8.246;2023-04-28T08:19:57;100058.06;;;13.75;100.00
22605;BME280;11469;49.024;8.246;2023-04-28T08:22:23;100058.09;;;13.78;100.00
22605;BME280;11469;49.024;8.246;2023-04-28T08:24:48;100053.69;;;13.81;100.00
22605;BME280;11469;49.024;8.246;2023-04-28T08:27:14;100055.69;;;13.80;100.00
22605;BME280;11469;49.024;8.246;2023-04-28T08:29:39;100054.94;;;13.87;100.00
22605;BME280;11469;49.024;8.246;2023-04-28T08:32:05;100053.72;;;13.88;100.00
22605;BME280;11469;49.024;8.246;2023-04-28T08:34:32;100059.41;;;13.95;100.00
22605;BME280;11469;49.024;8.246;2023-04-28T08:36:57;100049.00;;;14.03;100.00
22605;BME280;11469;49.024;8.246;2023-04-28T08:39:24;100056.31;;;14.14;100.00
22605;BME280;11469;49.024;8.246;2023-04-28T08:41:51;100055.53;;;14.17;100.00
22605;BME280;11469;49.024;8.246;2023-04-28T08:44:17;100056.75;;;14.27;100.00
22605;BME280;11469;49.024;8.246;2023-04-28T08:46:43;100045.91;;;14.29;100.00
22605;BME280;11469;49.024;8.246;2023-04-28T08:49:17;100058.03;;;14.37;100.00
22605;BME280;11469;49.024;8.246;2023-04-28T08:51:50;100055.22;;;14.40;100.00
22605;BME280;11469;49.024;8.246;2023-04-28T08:54:19;100056.09;;;14.48;100.00
22605;BME280;11469;49.024;8.246;2023-04-28T08:56:46;100064.59;;;14.58;100.00
22605;BME280;11469;49.024;8.246;2023-04-28T08:59:12;100073.06;;;14.58;100.00
22605;BME280;11469;49.024;8.246;2023-04-28T09:01:37;100060.97;;;14.58;100.00
22605;BME280;11469;49.024;8.246;2023-04-28T09:04:03;100063.81;;;14.62;100.00
22605;BME280;11469;49.024;8.246;2023-04-28T09:06:37;100062.59;;;14.59;100.00
22605;BME280;11469;49.024;8.246;2023-04-28T09:11:56;100073.09;;;14.76;100.00
22605;BME280;11469;49.024;8.246;2023-04-28T09:14:28;100070.72;;;14.85;100.00
22605;BME280;11469;49.024;8.246;2023-04-28T09:16:54;100069.53;;;14.97;100.00
22605;BME280;11469;49.024;8.246;2023-04-28T09:19:20;100072.00;;;15.06;100.00
22605;BME280;11469;49.024;8.246;2023-04-28T09:21:52;100065.97;;;15.11;100.00
22605;BME280;11469;49.024;8.246;2023-04-28T09:24:39;100069.97;;;15.17;100.00
22605;BME280;11469;49.024;8.246;2023-04-28T09:27:08;100063.13;;;15.18;100.00
22605;BME280;11469;49.024;8.246;2023-04-28T09:29:36;100057.88;;;15.16;100.00
22605;BME280;11469;49.024;8.246;2023-04-28T09:34:50;100060.31;;;15.28;100.00
22605;BME280;11469;49.024;8.246;2023-04-28T09:37:20;100056.69;;;15.28;100.00
22605;BME280;11469;49.024;8.246;2023-04-28T09:39:48;100059.09;;;15.30;100.00
22605;BME280;11469;49.024;8.246;2023-04-28T09:42:38;100063.56;;;15.48;100.00
22605;BME280;11469;49.024;8.246;2023-04-28T09:47:31;100061.56;;;15.74;100.00
22605;BME280;11469;49.024;8.246;2023-04-28T09:50:00;100065.19;;;15.85;100.00
22605;BME280;11469;49.024;8.246;2023-04-28T09:52:26;100053.06;;;15.95;100.00
22605;BME280;11469;49.024;8.246;2023-04-28T09:54:53;100053.84;;;15.99;100.00
22605;BME280;11469;49.024;8.246;2023-04-28T09:57:19;100064.31;;;16.13;100.00
22605;BME280;11469;49.024;8.246;2023-04-28T09:59:50;100059.84;;;16.22;100.00
22605;BME280;11469;49.024;8.246;2023-04-28T10:02:18;100063.84;;;16.29;100.00
22605;BME280;11469;49.024;8.246;2023-04-28T10:04:47;100067.50;;;16.25;100.00
22605;BME280;11469;49.024;8.246;2023-04-28T10:07:16;100066.72;;;16.14;100.00
22605;BME280;11469;49.024;8.246;2023-04-28T10:09:46;100061.13;;;15.97;100.00
22605;BME280;11469;49.024;8.246;2023-04-28T10:12:14;100060.72;;;15.95;100.00
22605;BME280;11469;49.024;8.246;2023-04-28T10:14:41;100053.47;;;15.83;100.00
22605;BME280;11469;49.024;8.246;2023-04-28T10:17:07;100067.19;;;15.77;100.00
22605;BME280;11469;49.024;8.246;2023-04-28T10:19:33;100061.94;;;15.76;100.00
22605;BME280;11469;49.024;8.246;2023-04-28T10:27:30;100064.38;;;15.84;100.00
22605;BME280;11469;49.024;8.246;2023-04-28T10:30:28;100061.13;;;15.97;100.00
22605;BME280;11469;49.024;8.246;2023-04-28T10:38:15;100068.69;;;16.39;100.00
22605;BME280;11469;49.024;8.246;2023-04-28T10:48:50;100067.75;;;16.63;100.00
22605;BME280;11469;49.024;8.246;2023-04-28T10:56:07;100054.44;;;16.67;100.00
22605;BME280;11469;49.024;8.246;2023-04-28T10:58:33;100044.34;;;16.55;100.00
22605;BME280;11469;49.024;8.246;2023-04-28T11:08:59;100042.53;;;17.01;100.00
22605;BME280;11469;49.024;8.246;2023-04-28T11:11:30;100040.00;;;17.13;100.00
22605;BME280;11469;49.024;8.246;2023-04-28T11:16:51;100040.47;;;17.56;100.00
22605;BME280;11469;49.024;8.246;2023-04-28T11:19:19;100038.38;;;17.64;100.00
22605;BME280;11469;49.024;8.246;2023-04-28T11:21:46;100042.53;;;17.52;100.00
22605;BME280;11469;49.024;8.246;2023-04-28T11:24:12;100040.66;;;17.39;100.00
22605;BME280;11469;49.024;8.246;2023-04-28T11:26:39;100042.00;;;17.20;100.00
22605;BME280;11469;49.024;8.246;2023-04-28T11:29:04;100040.78;;;17.21;100.00
22605;BME280;11469;49.024;8.246;2023-04-28T11:31:30;100036.69;;;17.25;100.00
22605;BME280;11469;49.024;8.246;2023-04-28T11:34:11;100038.28;;;17.30;100.00
22605;BME280;11469;49.024;8.246;2023-04-28T11:36:39;100037.88;;;17.28;100.00
22605;BME280;11469;49.024;8.246;2023-04-28T11:39:07;100029.06;;;17.19;100.00
22605;BME280;11469;49.024;8.246;2023-04-28T11:41:34;100030.31;;;17.11;100.00
22605;BME280;11469;49.024;8.246;2023-04-28T11:44:00;100030.31;;;17.11;100.00
22605;BME280;11469;49.024;8.246;2023-04-28T11:46:33;100029.06;;;17.19;100.00
22605;BME280;11469;49.024;8.246;2023-04-28T11:49:04;100025.03;;;17.13;100.00
22605;BME280;11469;49.024;8.246;2023-04-28T11:51:35;100026.31;;;17.05;100.00
22605;BME280;11469;49.024;8.246;2023-04-28T11:54:01;100028.75;;;17.03;100.00
22605;BME280;11469;49.024;8.246;2023-04-28T11:56:28;100034.84;;;17.01;100.00
22605;BME280;11469;49.024;8.246;2023-04-28T11:59:08;100034.88;;;16.98;100.00
22605;BME280;11469;49.024;8.246;2023-04-28T12:01:42;100029.22;;;16.98;100.00
22605;BME280;11469;49.024;8.246;2023-04-28T12:04:08;100034.50;;;16.96;100.00
22605;BME280;11469;49.024;8.246;2023-04-28T12:06:33;100039.38;;;16.88;100.00
22605;BME280;11469;49.024;8.246;2023-04-28T12:08:59;100042.66;;;16.79;100.00
22605;BME280;11469;49.024;8.246;2023-04-28T12:11:29;100035.38;;;16.78;100.00
22605;BME280;11469;49.024;8.246;2023-04-28T12:14:07;100039.03;;;16.79;100.00
22605;BME280;11469;49.024;8.246;2023-04-28T12:16:38;100041.00;;;16.85;100.00
22605;BME280;11469;49.024;8.246;2023-04-28T12:19:07;100032.91;;;16.87;100.00
22605;BME280;11469;49.024;8.246;2023-04-28T12:21:35;100031.69;;;16.88;100.00
22605;BME280;11469;49.024;8.246;2023-04-28T12:24:00;100035.31;;;16.92;100.00
22605;BME280;11469;49.024;8.246;2023-04-28T12:26:26;100036.91;;;16.97;100.00
22605;BME280;11469;49.024;8.246;2023-04-28T12:28:51;100031.94;;;17.08;100.00
22605;BME280;11469;49.024;8.246;2023-04-28T12:31:16;100028.19;;;17.25;100.00
22605;BME280;11469;49.024;8.246;2023-04-28T12:33:42;100026.03;;;17.44;100.00
22605;BME280;11469;49.024;8.246;2023-04-28T12:36:09;100031.56;;;17.58;100.00
22605;BME280;11469;49.024;8.246;2023-04-28T12:38:34;100029.94;;;17.57;100.00
22605;BME280;11469;49.024;8.246;2023-04-28T12:40:59;100036.41;;;17.57;100.00
22605;BME280;11469;49.024;8.246;2023-04-28T12:43:25;100038.88;;;17.55;100.00
22605;BME280;11469;49.024;8.246;2023-04-28T12:45:53;100023.97;;;17.48;100.00
22605;BME280;11469;49.024;8.246;2023-04-28T12:48:20;100024.69;;;17.55;100.00
22605;BME280;11469;49.024;8.246;2023-04-28T12:50:46;100019.81;;;17.59;100.00
22605;BME280;11469;49.024;8.246;2023-04-28T12:53:11;100027.09;;;17.61;100.00
22605;BME280;11469;49.024;8.246;2023-04-28T12:55:37;100025.03;;;17.65;100.00
22605;BME280;11469;49.024;8.246;2023-04-28T12:58:05;100020.59;;;17.64;100.00
22605;BME280;11469;49.024;8.246;2023-04-28T13:00:31;100023.38;;;17.71;100.00
22605;BME280;11469;49.024;8.246;2023-04-28T13:02:56;100026.88;;;17.85;100.00
22605;BME280;11469;49.024;8.246;2023-04-28T13:05:22;100030.06;;;17.91;100.00
22605;BME280;11469;49.024;8.246;2023-04-28T13:07:48;100028.91;;;17.85;100.00
22605;BME280;11469;49.024;8.246;2023-04-28T13:10:15;100028.50;;;17.86;100.00
22605;BME280;11469;49.024;8.246;2023-04-28T13:12:40;100026.81;;;17.93;100.00
22605;BME280;11469;49.024;8.246;2023-04-28T13:15:06;100023.56;;;17.94;100.00
22605;BME280;11469;49.024;8.246;2023-04-28T13:17:32;100015.38;;;18.00;100.00
22605;BME280;11469;49.024;8.246;2023-04-28T13:19:58;100018.22;;;18.00;100.00
22605;BME280;11469;49.024;8.246;2023-04-28T13:22:25;100023.84;;;18.03;100.00